Time;durP1;ratioP1;P1;durP2;ratioP2;P2;SDS_P1;SDS_P2;PMS_P1;PMS_P2;Temp;Humidity;BMP_temperature;BMP_pressure;BME280_temperature;BME280_humidity;BME280_pressure;Samples;Min_cycle;Max_cycle;Signal;HPM_P1;HPM_P2
2023/07/15 00:01:49;;;;;;;10.98;4.47;;;;;;;20.34;53.92;100425.31;5077086;28;20974;-67
2023/07/15 00:04:18;;;;;;;8.80;4.43;;;;;;;20.33;53.85;100417.53;5080085;28;20323;-67
2023/07/15 00:06:46;;;;;;;7.85;3.83;;;;;;;20.33;54.79;100415.75;5079008;28;20278;-66
2023/07/15 00:09:15;;;;;;;9.68;4.05;;;;;;;20.29;54.66;100411.59;5079484;28;20258;-66
2023/07/15 00:11:43;;;;;;;9.63;4.47;;;;;;;20.34;54.98;100411.38;5072850;28;20212;-67
2023/07/15 00:14:16;;;;;;;9.13;4.63;;;;;;;20.35;55.04;100407.81;5072629;28;20219;-67
2023/07/15 00:16:46;;;;;;;8.57;3.88;;;;;;;20.34;55.13;100408.75;5078585;28;20201;-67
2023/07/15 00:19:14;;;;;;;8.32;4.07;;;;;;;20.34;55.16;100406.97;5088123;28;20204;-66
2023/07/15 00:21:42;;;;;;;9.57;4.57;;;;;;;20.33;55.04;100407.91;5092506;28;20611;-67
2023/07/15 00:24:10;;;;;;;5.95;3.90;;;;;;;20.32;54.92;100398.34;5078672;28;20329;-68
2023/07/15 00:26:39;;;;;;;10.95;4.50;;;;;;;20.30;54.95;100404.59;5024651;28;1357962;-67
2023/07/15 00:29:07;;;;;;;9.73;3.88;;;;;;;20.31;55.14;100403.66;5072721;28;20201;-67
2023/07/15 00:31:37;;;;;;;11.63;4.55;;;;;;;20.33;54.75;100409.69;5077377;28;20280;-66
2023/07/15 00:34:06;;;;;;;5.70;3.92;;;;;;;20.32;54.57;100405.34;5073086;28;20201;-68
2023/07/15 00:36:35;;;;;;;9.65;3.92;;;;;;;20.30;54.66;100402.81;5072877;28;20208;-67
2023/07/15 00:39:04;;;;;;;7.43;4.30;;;;;;;20.30;54.65;100408.03;5072861;28;20677;-66
2023/07/15 00:41:35;;;;;;;12.18;4.13;;;;;;;20.28;54.75;100402.88;5072671;28;20518;-67
2023/07/15 00:44:05;;;;;;;5.85;3.78;;;;;;;20.30;54.91;100404.59;5072974;28;20552;-67
2023/07/15 00:47:14;;;;;;;9.68;4.43;;;;;;;20.32;55.06;100397.50;5072539;28;20212;-67
2023/07/15 00:49:44;;;;;;;7.30;4.15;;;;;;;20.34;55.28;100400.91;5073023;28;20208;-67
2023/07/15 00:52:15;;;;;;;6.22;3.97;;;;;;;20.35;54.77;100395.59;5054499;28;20201;-67
2023/07/15 00:54:46;;;;;;;9.73;4.00;;;;;;;20.36;54.77;100391.19;5072699;28;20201;-66
2023/07/15 00:57:16;;;;;;;9.07;4.15;;;;;;;20.37;54.96;100391.13;5071435;28;20197;-68
2023/07/15 00:59:46;;;;;;;7.57;4.05;;;;;;;20.38;54.70;100405.06;5072381;28;20212;-67
2023/07/15 01:02:16;;;;;;;10.40;4.45;;;;;;;20.40;54.79;100397.97;5072505;28;20562;-67
2023/07/15 01:04:45;;;;;;;7.15;3.72;;;;;;;20.37;54.81;100392.91;5072223;28;20244;-66
2023/07/15 01:07:13;;;;;;;8.18;3.33;;;;;;;20.37;54.65;100404.22;5072010;28;20228;-67
2023/07/15 01:09:42;;;;;;;5.78;3.05;;;;;;;20.35;50.18;100402.59;5080328;28;20205;-66
2023/07/15 01:12:12;;;;;;;5.00;2.63;;;;;;;20.32;48.59;100394.88;5072554;28;20205;-67
2023/07/15 01:14:41;;;;;;;7.40;4.63;;;;;;;20.34;50.24;100403.53;5073236;28;20589;-66
2023/07/15 01:17:09;;;;;;;7.38;3.90;;;;;;;20.38;51.78;100402.44;5072662;28;20255;-67
2023/07/15 01:19:38;;;;;;;7.70;4.05;;;;;;;20.33;52.50;100404.44;5073061;28;20202;-67
2023/07/15 01:22:07;;;;;;;8.43;3.40;;;;;;;20.33;53.10;100404.44;5082202;28;20210;-68
2023/07/15 01:24:38;;;;;;;4.82;3.53;;;;;;;20.31;53.56;100399.25;5074624;28;20227;-67
2023/07/15 01:27:08;;;;;;;6.80;3.58;;;;;;;20.31;53.63;100404.50;5071566;28;20251;-67
2023/07/15 01:29:37;;;;;;;4.68;3.10;;;;;;;20.27;54.17;100388.09;5085537;28;20192;-66
2023/07/15 01:32:05;;;;;;;3.80;3.10;;;;;;;20.28;54.02;100386.31;5075160;28;20283;-65
2023/07/15 01:34:33;;;;;;;5.85;3.20;;;;;;;20.29;53.99;100390.66;5077198;28;20209;-65
2023/07/15 01:37:01;;;;;;;5.43;3.40;;;;;;;20.28;53.81;100389.78;5071925;28;20268;-67
2023/07/15 01:39:29;;;;;;;5.05;3.10;;;;;;;20.31;53.54;100388.78;5073827;28;20602;-66
2023/07/15 01:41:59;;;;;;;3.60;2.78;;;;;;;20.31;53.40;100388.78;5071419;28;20237;-66
2023/07/15 01:44:27;;;;;;;4.00;3.05;;;;;;;20.31;52.92;100393.19;5071685;28;20747;-67
2023/07/15 01:46:55;;;;;;;5.30;2.83;;;;;;;20.27;52.97;100388.09;5075654;28;20620;-65
2023/07/15 01:49:23;;;;;;;8.15;3.28;;;;;;;20.23;52.79;100376.06;5082508;28;20254;-66
2023/07/15 01:51:51;;;;;;;4.05;2.95;;;;;;;20.20;52.99;100386.66;5091517;28;20276;-68
2023/07/15 01:54:19;;;;;;;4.35;3.00;;;;;;;20.20;52.92;100378.81;5081974;28;20209;-67
2023/07/15 01:56:47;;;;;;;4.88;2.70;;;;;;;20.15;53.20;100379.97;5074826;28;20296;-66
2023/07/15 01:59:17;;;;;;;3.55;2.70;;;;;;;20.10;53.62;100377.53;5071697;28;20543;-67
2023/07/15 02:01:45;;;;;;;4.55;2.88;;;;;;;20.05;53.79;100384.75;5071337;28;20292;-67
2023/07/15 02:04:13;;;;;;;5.75;3.15;;;;;;;20.04;53.78;100383.06;5071196;28;20213;-67
2023/07/15 02:06:41;;;;;;;12.45;3.08;;;;;;;20.03;53.83;100382.22;5077345;28;20193;-67
2023/07/15 02:09:09;;;;;;;7.25;2.70;;;;;;;20.01;54.03;100380.59;5076900;28;20205;-66
2023/07/15 02:11:37;;;;;;;5.55;3.15;;;;;;;20.02;53.61;100392.75;5071011;28;20235;-66
2023/07/15 02:14:07;;;;;;;3.40;2.42;;;;;;;20.02;53.84;100383.13;5071124;28;20284;-66
2023/07/15 02:16:39;;;;;;;5.53;3.10;;;;;;;20.02;54.16;100385.75;5077319;28;20713;-68
2023/07/15 02:19:07;;;;;;;5.68;2.67;;;;;;;20.03;53.87;100386.63;5077233;28;20287;-67
2023/07/15 02:21:36;;;;;;;5.60;2.78;;;;;;;19.99;53.81;100385.03;5091893;28;20249;-66
2023/07/15 02:24:06;;;;;;;8.10;2.67;;;;;;;19.99;53.35;100382.41;5079364;28;20302;-66
2023/07/15 02:26:34;;;;;;;4.10;2.72;;;;;;;19.98;52.88;100380.72;5071068;28;20275;-68
2023/07/15 02:29:03;;;;;;;5.03;2.90;;;;;;;19.97;53.54;100379.03;5071425;28;20212;-67
2023/07/15 02:31:31;;;;;;;5.53;3.00;;;;;;;19.96;53.63;100386.03;5085403;28;20284;-67
2023/07/15 02:34:00;;;;;;;3.85;2.53;;;;;;;19.97;52.64;100389.50;5080467;28;20558;-70
2023/07/15 02:36:29;;;;;;;5.80;3.30;;;;;;;19.99;52.75;100388.53;5073954;28;20600;-67
2023/07/15 02:38:57;;;;;;;6.05;3.45;;;;;;;19.97;53.89;100389.50;5082227;28;20204;-67
2023/07/15 02:41:25;;;;;;;8.60;2.78;;;;;;;20.01;53.63;100388.44;5070763;28;20201;-68
2023/07/15 02:43:54;;;;;;;5.90;3.10;;;;;;;20.01;53.98;100391.06;5071046;28;20197;-67
2023/07/15 02:46:22;;;;;;;4.90;3.05;;;;;;;19.96;53.62;100388.66;5071290;28;20894;-68
2023/07/15 02:48:50;;;;;;;6.28;3.13;;;;;;;19.97;53.92;100397.34;5071203;28;20296;-67
2023/07/15 02:51:20;;;;;;;5.78;2.50;;;;;;;19.96;53.06;100393.88;5071176;28;20205;-66
2023/07/15 02:53:49;;;;;;;3.53;2.60;;;;;;;19.99;53.51;100400.72;5071856;28;20205;-67
2023/07/15 02:56:17;;;;;;;3.63;2.30;;;;;;;19.98;53.75;100392.03;5074856;28;20254;-68
2023/07/15 02:58:46;;;;;;;4.20;2.50;;;;;;;20.03;53.67;100394.47;5074130;28;20197;-68
2023/07/15 03:01:14;;;;;;;5.20;2.97;;;;;;;20.06;53.45;100394.28;5071649;28;20217;-68
2023/07/15 03:03:43;;;;;;;3.38;2.72;;;;;;;20.08;53.56;100392.47;5071557;28;20201;-67
2023/07/15 03:06:12;;;;;;;4.60;2.97;;;;;;;20.09;53.62;100388.94;5080511;28;20308;-67
2023/07/15 03:08:44;;;;;;;4.53;3.05;;;;;;;20.12;53.54;100399.25;5076939;28;20291;-67
2023/07/15 03:11:12;;;;;;;7.35;3.40;;;;;;;20.14;53.64;100401.78;5071301;28;20205;-67
2023/07/15 03:13:41;;;;;;;5.82;3.33;;;;;;;20.18;53.48;100399.00;5071348;28;20251;-68
2023/07/15 03:16:10;;;;;;;5.63;3.00;;;;;;;20.20;53.47;100396.28;5070557;28;20221;-70
2023/07/15 03:18:39;;;;;;;4.43;2.97;;;;;;;20.18;53.39;100396.38;5071370;28;20205;-68
2023/07/15 03:21:07;;;;;;;8.55;4.18;;;;;;;20.12;53.88;100391.41;5076225;28;20209;-68
2023/07/15 03:23:35;;;;;;;5.57;3.42;;;;;;;20.13;54.15;100389.63;5086116;28;20201;-66
2023/07/15 03:26:05;;;;;;;6.38;3.88;;;;;;;20.19;54.65;100390.22;5074681;28;20209;-67
2023/07/15 03:28:33;;;;;;;4.70;3.10;;;;;;;20.25;54.69;100391.69;5087479;28;20205;-67
2023/07/15 03:31:01;;;;;;;10.55;3.70;;;;;;;20.30;54.89;100388.88;5079798;28;20204;-67
2023/07/15 03:33:30;;;;;;;5.18;3.60;;;;;;;20.33;55.01;100386.97;5083467;28;20664;-67
2023/07/15 03:35:59;;;;;;;9.73;5.65;;;;;;;20.30;54.77;100387.09;5073934;28;20208;-68
2023/07/15 03:38:28;;;;;;;7.47;5.20;;;;;;;20.18;55.46;100383.28;5074107;28;20200;-68
2023/07/15 03:40:56;;;;;;;11.55;6.18;;;;;;;20.03;56.22;100384.00;5073691;28;20292;-66
2023/07/15 03:43:26;;;;;;;9.10;5.68;;;;;;;19.92;56.79;100383.59;5074369;28;20652;-67
2023/07/15 03:45:57;;;;;;;7.10;5.57;;;;;;;19.93;56.79;100388.78;5074182;28;20601;-67
2023/07/15 03:48:26;;;;;;;8.82;6.15;;;;;;;19.96;57.09;100388.66;5073822;28;20292;-67
2023/07/15 03:50:56;;;;;;;11.18;5.45;;;;;;;20.06;57.26;100394.28;5079467;28;20208;-67
2023/07/15 03:53:25;;;;;;;9.05;5.43;;;;;;;20.14;56.81;100394.81;5077747;28;20579;-68
2023/07/15 03:55:53;;;;;;;8.25;5.35;;;;;;;20.24;56.92;100398.69;5073623;28;20197;-66
2023/07/15 03:58:21;;;;;;;6.10;5.38;;;;;;;20.33;56.83;100407.06;5073739;28;20749;-67
2023/07/15 04:00:51;;;;;;;9.35;5.75;;;;;;;20.38;56.97;100399.84;5074166;28;20220;-68
2023/07/15 04:03:19;;;;;;;7.65;5.55;;;;;;;20.45;57.23;100396.00;5074443;28;20232;-68
2023/07/15 04:05:47;;;;;;;10.05;6.10;;;;;;;20.53;57.31;100404.38;5088154;28;20228;-67
2023/07/15 04:08:15;;;;;;;9.93;5.78;;;;;;;20.62;57.12;100405.72;5077941;28;20201;-67
2023/07/15 04:10:46;;;;;;;8.15;5.75;;;;;;;20.70;56.72;100407.06;5076456;28;20217;-67
2023/07/15 04:13:14;;;;;;;6.90;5.13;;;;;;;20.78;56.78;100409.31;5074922;28;20247;-67
2023/07/15 04:15:43;;;;;;;9.38;6.25;;;;;;;20.79;56.23;100400.53;5073118;28;20197;-68
2023/07/15 04:18:12;;;;;;;8.30;5.70;;;;;;;20.87;55.97;100413.25;5073431;28;20221;-68
2023/07/15 04:20:40;;;;;;;7.18;5.60;;;;;;;20.91;55.88;100409.56;5074607;28;20270;-67
2023/07/15 04:23:09;;;;;;;7.57;5.72;;;;;;;20.93;56.11;100412.97;5088095;28;20288;-67
2023/07/15 04:25:37;;;;;;;10.73;6.22;;;;;;;20.95;56.04;100404.13;5073106;28;20213;-67
2023/07/15 04:28:05;;;;;;;9.82;5.65;;;;;;;21.01;56.24;100405.56;5072976;28;20256;-68
2023/07/15 04:30:34;;;;;;;9.25;5.93;;;;;;;21.07;56.38;100407.91;5071559;28;20225;-68
2023/07/15 04:33:02;;;;;;;5.60;3.97;;;;;;;21.10;52.62;100410.38;5081974;28;20258;-66
2023/07/15 04:35:33;;;;;;;6.72;4.13;;;;;;;21.18;51.44;100407.38;5072814;28;20198;-67
2023/07/15 04:38:01;;;;;;;6.40;4.00;;;;;;;21.25;49.00;100405.28;5072527;28;20228;-67
2023/07/15 04:40:29;;;;;;;5.43;2.92;;;;;;;21.32;47.84;100401.41;5073145;28;20614;-68
2023/07/15 04:42:57;;;;;;;4.03;3.30;;;;;;;21.46;47.17;100406.84;5072550;28;20280;-68
2023/07/15 04:45:25;;;;;;;5.78;3.22;;;;;;;21.64;46.66;100405.91;5073141;28;20350;-67
2023/07/15 04:47:53;;;;;;;9.30;4.20;;;;;;;21.85;45.82;100401.31;5072589;28;20227;-67
2023/07/15 04:50:22;;;;;;;3.92;3.08;;;;;;;22.08;44.74;100394.84;5072671;28;20233;-67
2023/07/15 04:52:51;;;;;;;4.80;3.58;;;;;;;22.36;44.11;100385.50;5073372;28;20279;-66
2023/07/15 04:55:19;;;;;;;5.13;2.83;;;;;;;22.63;43.40;100389.22;5085104;28;20197;-67
2023/07/15 04:57:48;;;;;;;4.88;3.05;;;;;;;22.86;42.59;100387.91;5072144;28;20246;-66
2023/07/15 05:00:16;;;;;;;6.85;3.28;;;;;;;23.18;42.07;100389.66;5072297;28;20251;-65
2023/07/15 05:02:44;;;;;;;3.88;2.72;;;;;;;23.42;41.06;100385.59;5081315;28;20223;-67
2023/07/15 05:05:14;;;;;;;5.15;3.13;;;;;;;23.61;40.51;100386.19;5077081;28;20228;-67
2023/07/15 05:07:43;;;;;;;5.75;2.97;;;;;;;23.84;39.88;100383.97;5072419;28;20217;-67
2023/07/15 05:10:26;;;;;;;6.18;3.42;;;;;;;24.29;39.03;100380.22;5072039;28;20213;-67
2023/07/15 05:12:55;;;;;;;5.50;3.20;;;;;;;24.63;38.00;100377.25;5071959;28;20205;-67
2023/07/15 05:15:23;;;;;;;5.45;3.50;;;;;;;24.87;38.20;100374.84;5071948;28;20251;-67
2023/07/15 05:17:52;;;;;;;7.10;3.38;;;;;;;25.41;36.77;100380.88;5079580;28;20209;-67
2023/07/15 05:20:20;;;;;;;4.50;3.00;;;;;;;26.18;35.73;100368.47;5088354;28;20219;-67
2023/07/15 05:22:48;;;;;;;4.57;3.22;;;;;;;27.37;33.50;100374.69;5090481;28;20218;-67
2023/07/15 05:25:17;;;;;;;5.32;3.47;;;;;;;28.81;31.23;100375.69;5081530;28;20247;-67
2023/07/15 05:27:47;;;;;;;4.85;2.92;;;;;;;29.93;28.98;100375.03;5077532;28;20237;-67
2023/07/15 05:30:15;;;;;;;4.25;2.85;;;;;;;30.75;28.25;100381.97;5076624;28;20292;-68
2023/07/15 05:32:43;;;;;;;3.75;3.10;;;;;;;31.16;27.39;100370.19;5087675;28;20232;-67
2023/07/15 05:35:12;;;;;;;4.93;3.35;;;;;;;31.48;26.47;100382.31;5086065;28;20231;-67
2023/07/15 05:37:41;;;;;;;5.05;3.08;;;;;;;31.67;26.60;100371.63;5072523;28;20215;-66
2023/07/15 05:40:10;;;;;;;4.30;3.13;;;;;;;32.43;25.81;100370.56;5072888;28;20197;-66
2023/07/15 05:42:39;;;;;;;3.65;2.88;;;;;;;33.20;24.53;100371.75;5083568;28;20686;-69
2023/07/15 05:45:11;;;;;;;5.30;3.03;;;;;;;33.97;23.34;100369.22;5074503;28;20614;-68
2023/07/15 05:47:40;;;;;;;4.85;2.67;;;;;;;34.85;22.07;100370.44;5072092;28;20328;-67
2023/07/15 05:50:10;;;;;;;3.42;3.10;;;;;;;34.98;22.15;100374.44;5072619;28;20280;-66
2023/07/15 05:52:39;;;;;;;3.25;2.78;;;;;;;34.90;21.93;100372.59;5072223;28;20201;-67
2023/07/15 05:55:07;;;;;;;3.78;2.92;;;;;;;34.77;22.15;100372.28;5071935;28;20209;-68
2023/07/15 05:57:35;;;;;;;3.65;2.65;;;;;;;34.87;22.25;100372.94;5071882;28;20201;-68
2023/07/15 06:00:07;;;;;;;6.10;3.28;;;;;;;35.64;21.36;100369.88;5072683;28;20203;-68
2023/07/15 06:02:37;;;;;;;5.90;3.40;;;;;;;36.49;20.65;100370.84;5084115;28;20197;-67
2023/07/15 06:05:06;;;;;;;4.72;3.03;;;;;;;37.00;19.76;100360.38;5071495;28;20205;-67
2023/07/15 06:07:34;;;;;;;3.58;2.42;;;;;;;37.20;19.62;100374.16;5072782;28;20209;-68
2023/07/15 06:10:03;;;;;;;3.10;2.80;;;;;;;37.36;19.20;100361.56;5077972;28;20205;-69
2023/07/15 06:12:31;;;;;;;5.28;2.50;;;;;;;37.67;19.01;100356.00;5086105;28;20616;-67
2023/07/15 06:14:59;;;;;;;4.00;2.50;;;;;;;37.98;18.85;100353.13;5072070;28;20707;-68
2023/07/15 06:17:27;;;;;;;3.30;2.42;;;;;;;38.39;17.36;100361.47;5071346;28;20201;-67
2023/07/15 06:19:57;;;;;;;3.50;2.72;;;;;;;38.96;17.70;100356.19;5084929;28;20249;-68
2023/07/15 06:22:25;;;;;;;4.30;2.85;;;;;;;39.24;16.84;100362.47;5087333;28;20258;-69
2023/07/15 06:24:54;;;;;;;3.90;2.70;;;;;;;39.42;16.73;100364.66;5072427;28;20670;-68
2023/07/15 06:27:22;;;;;;;4.25;2.63;;;;;;;40.03;16.50;100366.63;5071240;28;20275;-68
2023/07/15 06:29:50;;;;;;;4.38;2.60;;;;;;;40.22;15.90;100371.28;5071118;28;20224;-69
2023/07/15 06:32:19;;;;;;;3.72;2.47;;;;;;;40.02;15.54;100359.56;5076579;28;20203;-68
2023/07/15 06:34:47;;;;;;;3.30;2.20;;;;;;;40.27;15.63;100357.16;5074601;28;20672;-66
2023/07/15 06:37:17;;;;;;;3.17;2.28;;;;;;;40.72;15.34;100360.16;5053498;28;20565;-67
2023/07/15 06:39:46;;;;;;;2.83;2.42;;;;;;;41.01;15.02;100361.63;5071265;28;20257;-67
2023/07/15 06:42:14;;;;;;;3.55;2.88;;;;;;;41.44;15.01;100363.88;5073036;28;20223;-66
2023/07/15 06:44:42;;;;;;;4.00;2.38;;;;;;;42.06;14.35;100358.88;5078689;28;20630;-67
2023/07/15 06:47:11;;;;;;;5.22;2.45;;;;;;;42.70;13.73;100347.03;5077777;28;20751;-67
2023/07/15 06:49:40;;;;;;;3.30;2.60;;;;;;;42.83;13.65;100351.53;5092048;28;20569;-67
2023/07/15 06:52:08;;;;;;;2.38;2.13;;;;;;;42.36;13.61;100348.31;5071989;28;20197;-66
2023/07/15 06:54:37;;;;;;;3.28;2.40;;;;;;;41.99;14.02;100353.50;5079306;28;20196;-66
2023/07/15 06:57:06;;;;;;;2.80;2.53;;;;;;;41.58;14.12;100354.69;5090065;28;20215;-65
2023/07/15 06:59:34;;;;;;;3.90;2.63;;;;;;;41.44;14.58;100353.06;5082740;28;20220;-66
2023/07/15 07:02:02;;;;;;;3.95;2.38;;;;;;;41.12;14.74;100350.19;5078462;28;20205;-67
2023/07/15 07:04:31;;;;;;;2.65;2.30;;;;;;;41.04;14.90;100347.69;5075475;28;20219;-66
2023/07/15 07:06:59;;;;;;;3.80;2.45;;;;;;;41.17;14.60;100344.13;5074567;28;20638;-65
2023/07/15 07:09:27;;;;;;;2.22;2.03;;;;;;;41.84;14.12;100344.84;5080860;28;20544;-66
2023/07/15 07:11:56;;;;;;;3.67;2.22;;;;;;;42.00;13.72;100347.03;5074832;28;20222;-66
2023/07/15 07:14:24;;;;;;;3.78;2.50;;;;;;;41.70;14.08;100352.13;5074775;28;20196;-67
2023/07/15 07:16:53;;;;;;;2.17;1.95;;;;;;;42.08;14.03;100354.06;5079079;28;20561;-67
2023/07/15 07:19:21;;;;;;;3.50;2.20;;;;;;;42.67;13.19;100342.88;5080597;28;20553;-67
2023/07/15 07:21:49;;;;;;;2.95;2.20;;;;;;;43.25;12.95;100340.91;5094945;28;20208;-66
2023/07/15 07:24:17;;;;;;;5.47;2.70;;;;;;;43.60;12.77;100331.13;5080496;28;20262;-66
2023/07/15 07:26:45;;;;;;;2.35;2.08;;;;;;;43.61;13.11;100332.78;5074763;28;20246;-68
2023/07/15 07:29:17;;;;;;;2.70;2.28;;;;;;;43.30;13.25;100331.03;5074483;28;20208;-66
2023/07/15 07:31:45;;;;;;;3.25;2.55;;;;;;;43.36;13.68;100329.31;5075332;28;20208;-69
2023/07/15 07:34:14;;;;;;;4.18;2.85;;;;;;;44.04;12.80;100337.25;5082536;28;20577;-67
2023/07/15 07:36:42;;;;;;;4.95;2.38;;;;;;;44.89;12.50;100321.72;5074842;28;20205;-67
2023/07/15 07:39:10;;;;;;;5.25;2.40;;;;;;;44.90;11.77;100326.94;5074273;28;20254;-66
2023/07/15 07:41:38;;;;;;;3.08;2.15;;;;;;;44.46;12.28;100329.13;5073995;28;20292;-67
2023/07/15 07:44:08;;;;;;;2.35;2.15;;;;;;;43.77;13.21;100336.75;5073999;28;20247;-67
2023/07/15 07:46:38;;;;;;;4.57;2.20;;;;;;;43.07;13.73;100334.41;5073892;28;20653;-66
2023/07/15 07:49:06;;;;;;;4.05;2.45;;;;;;;42.50;13.91;100330.09;5074740;28;20564;-67
2023/07/15 07:51:34;;;;;;;2.75;2.20;;;;;;;42.45;13.82;100322.59;5074810;28;20212;-67
2023/07/15 07:54:02;;;;;;;3.83;2.40;;;;;;;42.33;14.16;100325.19;5081076;28;20196;-67
2023/07/15 07:56:31;;;;;;;3.03;2.42;;;;;;;41.89;14.75;100320.63;5080859;28;20197;-70
2023/07/15 07:59:00;;;;;;;2.33;2.10;;;;;;;40.91;15.77;100323.34;5088714;28;20308;-67
2023/07/15 08:01:30;;;;;;;2.28;1.95;;;;;;;39.74;16.64;100322.72;5074813;28;20201;-67
2023/07/15 08:04:01;;;;;;;3.72;2.50;;;;;;;38.42;17.39;100320.72;5093967;28;20207;-67
2023/07/15 08:06:30;;;;;;;4.18;2.40;;;;;;;37.03;19.20;100328.81;5094081;28;20245;-68
2023/07/15 08:08:58;;;;;;;4.93;2.20;;;;;;;35.96;20.50;100332.19;5082211;28;20206;-66
2023/07/15 08:11:26;;;;;;;5.93;2.63;;;;;;;34.92;21.66;100338.47;5074471;28;20205;-69
2023/07/15 08:13:55;;;;;;;4.38;2.20;;;;;;;34.18;22.81;100336.72;5073817;28;20228;-67
2023/07/15 08:16:31;;;;;;;2.63;2.00;;;;;;;33.36;24.05;100338.97;5082806;28;20258;-67
2023/07/15 08:19:04;;;;;;;4.70;2.38;;;;;;;32.74;24.69;100332.84;5077485;28;20263;-67
2023/07/15 08:21:32;;;;;;;2.92;2.15;;;;;;;32.35;24.97;100338.44;5081259;28;20291;-67
2023/07/15 08:24:00;;;;;;;3.60;2.00;;;;;;;31.90;25.43;100325.97;5094529;28;20240;-66
2023/07/15 08:26:29;;;;;;;2.78;2.50;;;;;;;31.51;26.26;100328.75;5089855;28;20243;-67
2023/07/15 08:28:59;;;;;;;3.65;2.58;;;;;;;31.19;27.23;100332.63;5074284;28;20588;-67
2023/07/15 08:31:27;;;;;;;2.58;1.83;;;;;;;31.12;27.03;100323.53;5074238;28;20214;-67
2023/07/15 08:33:56;;;;;;;3.47;2.20;;;;;;;30.91;27.19;100331.69;5083514;28;20217;-68
2023/07/15 08:36:25;;;;;;;2.50;2.30;;;;;;;30.59;27.29;100326.63;5087887;28;20740;-68
2023/07/15 08:38:56;;;;;;;4.38;2.47;;;;;;;30.46;28.21;100320.75;5078285;28;20215;-67
2023/07/15 08:41:25;;;;;;;4.25;2.42;;;;;;;30.32;27.94;100314.03;5087876;28;20204;-68
2023/07/15 08:43:54;;;;;;;4.05;2.20;;;;;;;30.35;28.46;100307.59;5080346;28;20229;-69
2023/07/15 08:46:27;;;;;;;2.75;2.55;;;;;;;30.30;28.18;100316.84;5074627;28;20210;-68
2023/07/15 08:48:59;;;;;;;2.60;2.35;;;;;;;30.22;28.09;100305.19;5073790;28;20209;-68
2023/07/15 08:51:31;;;;;;;3.92;2.25;;;;;;;30.10;28.51;100309.75;5072815;28;20201;-67
2023/07/15 08:54:03;;;;;;;4.38;2.40;;;;;;;29.94;28.82;100307.63;5080093;28;20656;-67
2023/07/15 08:56:34;;;;;;;3.08;2.53;;;;;;;29.99;28.87;100309.88;5079779;28;20206;-69
2023/07/15 08:59:05;;;;;;;3.20;2.38;;;;;;;30.06;29.22;100308.34;5073405;28;20197;-68
2023/07/15 09:01:36;;;;;;;2.42;1.88;;;;;;;30.08;28.55;100311.69;5079523;28;20208;-67
2023/07/15 09:04:04;;;;;;;3.60;2.00;;;;;;;30.14;28.52;100308.50;5073379;28;20224;-68
2023/07/15 09:06:34;;;;;;;2.95;2.22;;;;;;;30.17;29.25;100307.44;5073009;28;20208;-66
2023/07/15 09:09:02;;;;;;;2.63;2.15;;;;;;;30.17;28.69;100307.44;5077943;28;20233;-67
2023/07/15 09:11:38;;;;;;;2.70;2.08;;;;;;;30.11;28.58;100295.47;5072410;28;20690;-67
2023/07/15 09:14:13;;;;;;;3.45;2.20;;;;;;;30.19;28.53;100297.47;5072167;28;20196;-69
2023/07/15 09:16:43;;;;;;;5.18;2.40;;;;;;;30.28;28.64;100291.34;5081534;28;20200;-66
2023/07/15 09:19:13;;;;;;;4.03;1.90;;;;;;;30.37;28.67;100297.66;5073914;28;20221;-67
2023/07/15 09:21:52;;;;;;;2.40;2.20;;;;;;;30.27;28.03;100287.03;5079079;28;20208;-67
2023/07/15 09:24:22;;;;;;;3.20;1.75;;;;;;;30.15;28.40;100285.41;5078398;28;20212;-67
2023/07/15 09:26:53;;;;;;;3.25;2.15;;;;;;;30.19;28.52;100279.72;5084832;28;20699;-68
2023/07/15 09:29:21;;;;;;;3.28;2.38;;;;;;;30.30;29.17;100282.28;5072245;28;20217;-67
2023/07/15 09:31:50;;;;;;;3.70;2.10;;;;;;;30.51;28.54;100282.13;5078668;28;20291;-66
2023/07/15 09:34:22;;;;;;;4.18;2.03;;;;;;;30.67;28.19;100281.56;5078829;28;20201;-66
2023/07/15 09:36:52;;;;;;;3.30;2.20;;;;;;;30.74;27.99;100282.69;5071898;28;20630;-66
2023/07/15 09:39:22;;;;;;;2.75;1.98;;;;;;;30.85;27.75;100287.00;5071738;28;20732;-68
2023/07/15 09:42:01;;;;;;;3.25;1.98;;;;;;;30.94;27.07;100280.00;5072090;28;20274;-67
2023/07/15 09:44:37;;;;;;;3.60;2.17;;;;;;;31.09;26.78;100277.72;5071315;28;20280;-69
2023/07/15 09:47:06;;;;;;;4.40;2.47;;;;;;;31.28;26.61;100273.16;5071720;28;20215;-67
2023/07/15 09:49:35;;;;;;;2.88;2.20;;;;;;;31.58;26.63;100273.09;5071530;28;20225;-67
2023/07/15 09:52:06;;;;;;;2.75;2.03;;;;;;;31.91;26.36;100272.50;5071335;28;20250;-67
2023/07/15 09:54:35;;;;;;;3.03;2.17;;;;;;;32.55;25.79;100273.34;5075066;28;20211;-68
2023/07/15 09:57:08;;;;;;;2.25;2.05;;;;;;;33.29;24.08;100257.81;5071744;28;20223;-68
2023/07/15 09:59:47;;;;;;;2.70;1.95;;;;;;;33.94;23.09;100252.72;5071455;28;20208;-68
2023/07/15 10:02:28;;;;;;;3.20;2.30;;;;;;;34.69;22.19;100252.66;5071318;28;20283;-67
2023/07/15 10:05:03;;;;;;;3.53;2.63;;;;;;;35.38;21.48;100242.28;5071482;28;20283;-68
2023/07/15 10:07:34;;;;;;;4.00;1.92;;;;;;;36.49;20.15;100247.38;5071812;28;20205;-67
2023/07/15 10:10:05;;;;;;;3.80;1.73;;;;;;;37.27;18.90;100242.56;5077303;28;20557;-66
2023/07/15 10:12:34;;;;;;;4.28;2.00;;;;;;;37.67;18.74;100246.59;5071516;28;20545;-66
2023/07/15 10:15:03;;;;;;;2.85;2.10;;;;;;;37.88;18.54;100237.72;5072273;28;20204;-67
2023/07/15 10:17:35;;;;;;;5.13;1.92;;;;;;;38.18;18.53;100243.00;5076104;28;20287;-70
2023/07/15 10:20:10;;;;;;;2.00;1.73;;;;;;;39.05;17.81;100236.47;5079876;28;20250;-67
2023/07/15 10:22:40;;;;;;;5.13;1.92;;;;;;;39.53;17.20;100236.50;5084975;28;20204;-68
2023/07/15 10:25:11;;;;;;;2.38;1.80;;;;;;;39.59;16.98;100227.59;5070935;28;20205;-67
2023/07/15 10:27:40;;;;;;;7.30;2.17;;;;;;;39.41;16.83;100228.16;5071115;28;20240;-66
2023/07/15 10:30:16;;;;;;;2.67;2.05;;;;;;;39.02;17.99;100234.97;5074946;28;20225;-66
2023/07/15 10:33:10;;;;;;;3.08;2.28;;;;;;;39.27;17.03;100231.81;5084273;28;20287;-66
2023/07/15 10:35:50;;;;;;;3.22;2.10;;;;;;;39.98;17.18;100229.56;5075036;28;20228;-66
2023/07/15 10:38:25;;;;;;;2.35;1.77;;;;;;;40.60;16.08;100227.56;5086077;28;20200;-65
2023/07/15 10:40:55;;;;;;;2.20;2.00;;;;;;;40.78;16.03;100214.22;5074761;28;20228;-68
2023/07/15 10:43:24;;;;;;;3.85;1.95;;;;;;;40.60;16.07;100227.56;5074820;28;20550;-66
2023/07/15 10:45:55;;;;;;;2.53;2.03;;;;;;;40.48;16.41;100229.22;5074810;28;20299;-67
2023/07/15 10:48:24;;;;;;;5.55;2.15;;;;;;;40.10;16.33;100221.69;5074697;28;20208;-66
2023/07/15 10:50:52;;;;;;;2.72;2.20;;;;;;;39.69;16.83;100219.97;5074511;28;20224;-65
2023/07/15 10:53:23;;;;;;;2.78;2.00;;;;;;;39.57;17.72;100226.97;5075864;28;20208;-66
2023/07/15 10:55:55;;;;;;;2.38;2.03;;;;;;;40.11;16.60;100223.38;5086761;28;20204;-65
2023/07/15 10:58:23;;;;;;;3.83;1.77;;;;;;;40.21;16.38;100221.13;5088117;28;20208;-67
2023/07/15 11:00:51;;;;;;;5.13;2.05;;;;;;;40.25;16.24;100218.84;5074848;28;20250;-67
2023/07/15 11:03:21;;;;;;;3.13;2.00;;;;;;;40.65;16.05;100216.94;5088688;28;20203;-65
2023/07/15 11:05:49;;;;;;;2.38;2.20;;;;;;;41.21;16.03;100207.50;5074827;28;20250;-66
2023/07/15 11:08:19;;;;;;;2.78;1.92;;;;;;;41.30;15.83;100206.19;5079295;28;20287;-66
2023/07/15 11:10:49;;;;;;;5.25;2.20;;;;;;;40.99;16.21;100209.66;5075068;28;20228;-67
2023/07/15 11:13:18;;;;;;;2.30;2.00;;;;;;;41.04;16.22;100213.34;5086392;28;20216;-67
2023/07/15 11:15:46;;;;;;;3.25;2.08;;;;;;;40.99;15.94;100204.25;5080452;28;20204;-66
2023/07/15 11:18:16;;;;;;;2.35;1.58;;;;;;;40.76;15.98;100207.38;5083344;28;20291;-66
2023/07/15 11:20:46;;;;;;;2.00;1.70;;;;;;;40.40;15.59;100210.53;5074850;28;20660;-66
2023/07/15 11:23:14;;;;;;;2.35;1.85;;;;;;;40.23;16.08;100210.13;5088394;28;20201;-67
2023/07/15 11:25:44;;;;;;;2.53;1.83;;;;;;;39.82;16.42;100197.59;5074334;28;20267;-67
2023/07/15 11:28:14;;;;;;;2.78;1.63;;;;;;;39.59;16.92;100195.22;5080886;28;20258;-66
2023/07/15 11:30:44;;;;;;;2.28;1.80;;;;;;;38.97;16.99;100183.56;5083219;28;20303;-66
2023/07/15 11:33:13;;;;;;;2.30;1.70;;;;;;;37.92;17.99;100187.91;5083313;28;20287;-66
2023/07/15 11:35:43;;;;;;;4.18;2.15;;;;;;;37.14;19.12;100188.63;5083969;28;20229;-67